sensor_id;sensor_type;location;lat;lon;timestamp;temperature;humidity
1205;DHT22;592;48.764;9.174;2023-01-24T00:02:26;2.40;99.90
1205;DHT22;592;48.764;9.174;2023-01-24T00:04:53;2.40;99.90
1205;DHT22;592;48.764;9.174;2023-01-24T00:07:19;2.40;99.90
1205;DHT22;592;48.764;9.174;2023-01-24T00:09:46;2.30;99.90
1205;DHT22;592;48.764;9.174;2023-01-24T00:12:13;2.30;99.90
1205;DHT22;592;48.764;9.174;2023-01-24T00:14:39;2.30;99.90
1205;DHT22;592;48.764;9.174;2023-01-24T00:17:07;2.30;99.90
1205;DHT22;592;48.764;9.174;2023-01-24T00:19:34;2.30;99.90
1205;DHT22;592;48.764;9.174;2023-01-24T00:22:01;2.30;99.90
1205;DHT22;592;48.764;9.174;2023-01-24T00:24:28;2.40;99.90
1205;DHT22;592;48.764;9.174;2023-01-24T00:26:58;2.40;99.90
1205;DHT22;592;48.764;9.174;2023-01-24T00:29:25;2.40;99.90
1205;DHT22;592;48.764;9.174;2023-01-24T00:31:51;2.30;99.90
1205;DHT22;592;48.764;9.174;2023-01-24T00:34:20;2.40;99.90
1205;DHT22;592;48.764;9.174;2023-01-24T00:36:46;2.30;99.90
1205;DHT22;592;48.764;9.174;2023-01-24T00:39:13;2.40;99.90
1205;DHT22;592;48.764;9.174;2023-01-24T00:41:40;2.40;99.90
1205;DHT22;592;48.764;9.174;2023-01-24T00:44:07;2.40;99.90
1205;DHT22;592;48.764;9.174;2023-01-24T00:46:33;2.40;99.90
1205;DHT22;592;48.764;9.174;2023-01-24T00:49:00;2.50;99.90
1205;DHT22;592;48.764;9.174;2023-01-24T00:51:28;2.40;99.90
1205;DHT22;592;48.764;9.174;2023-01-24T00:53:55;2.50;99.90
1205;DHT22;592;48.764;9.174;2023-01-24T00:56:21;2.50;99.90
1205;DHT22;592;48.764;9.174;2023-01-24T00:58:48;2.50;99.90
1205;DHT22;592;48.764;9.174;2023-01-24T01:01:15;2.50;99.90
1205;DHT22;592;48.764;9.174;2023-01-24T01:03:41;2.50;99.90
1205;DHT22;592;48.764;9.174;2023-01-24T01:06:12;2.50;99.90
1205;DHT22;592;48.764;9.174;2023-01-24T01:08:41;2.40;99.90
1205;DHT22;592;48.764;9.174;2023-01-24T01:11:08;2.40;99.90
1205;DHT22;592;48.764;9.174;2023-01-24T01:13:34;2.50;99.90
1205;DHT22;592;48.764;9.174;2023-01-24T01:16:02;2.40;99.90
1205;DHT22;592;48.764;9.174;2023-01-24T01:18:29;2.50;99.90
1205;DHT22;592;48.764;9.174;2023-01-24T01:20:56;2.50;99.90
1205;DHT22;592;48.764;9.174;2023-01-24T01:23:23;2.50;99.90
1205;DHT22;592;48.764;9.174;2023-01-24T01:25:51;2.50;99.90
1205;DHT22;592;48.764;9.174;2023-01-24T01:28:18;2.50;99.90
1205;DHT22;592;48.764;9.174;2023-01-24T01:30:51;2.50;99.90
1205;DHT22;592;48.764;9.174;2023-01-24T01:33:18;2.50;99.90
1205;DHT22;592;48.764;9.174;2023-01-24T01:35:46;2.50;99.90
1205;DHT22;592;48.764;9.174;2023-01-24T01:38:12;2.50;99.90
1205;DHT22;592;48.764;9.174;2023-01-24T01:40:39;2.50;99.90
1205;DHT22;592;48.764;9.174;2023-01-24T01:43:12;2.50;99.90
1205;DHT22;592;48.764;9.174;2023-01-24T01:45:42;2.50;99.90
1205;DHT22;592;48.764;9.174;2023-01-24T01:48:15;2.40;99.90
1205;DHT22;592;48.764;9.174;2023-01-24T01:50:46;2.50;99.90
1205;DHT22;592;48.764;9.174;2023-01-24T01:53:14;2.50;99.90
1205;DHT22;592;48.764;9.174;2023-01-24T01:55:44;2.50;99.90
1205;DHT22;592;48.764;9.174;2023-01-24T01:58:15;2.50;99.90
1205;DHT22;592;48.764;9.174;2023-01-24T02:00:43;2.50;99.90
1205;DHT22;592;48.764;9.174;2023-01-24T02:03:18;2.50;99.90
1205;DHT22;592;48.764;9.174;2023-01-24T02:06:13;2.40;99.90
1205;DHT22;592;48.764;9.174;2023-01-24T02:08:43;2.50;99.90
1205;DHT22;592;48.764;9.174;2023-01-24T02:11:12;2.50;99.90
1205;DHT22;592;48.764;9.174;2023-01-24T02:14:00;2.50;99.90
1205;DHT22;592;48.764;9.174;2023-01-24T02:16:44;2.50;99.90
1205;DHT22;592;48.764;9.174;2023-01-24T02:19:17;2.50;99.90
1205;DHT22;592;48.764;9.174;2023-01-24T02:21:47;2.50;99.90
1205;DHT22;592;48.764;9.174;2023-01-24T02:24:19;2.50;99.90
1205;DHT22;592;48.764;9.174;2023-01-24T02:26:50;2.50;99.90
1205;DHT22;592;48.764;9.174;2023-01-24T02:29:17;2.50;99.90
1205;DHT22;592;48.764;9.174;2023-01-24T02:31:54;2.50;99.90
1205;DHT22;592;48.764;9.174;2023-01-24T02:34:22;2.50;99.90
1205;DHT22;592;48.764;9.174;2023-01-24T02:36:51;2.50;99.90
1205;DHT22;592;48.764;9.174;2023-01-24T02:39:23;2.50;99.90
1205;DHT22;592;48.764;9.174;2023-01-24T02:41:57;2.50;99.90
1205;DHT22;592;48.764;9.174;2023-01-24T02:44:30;2.50;99.90
1205;DHT22;592;48.764;9.174;2023-01-24T02:46:58;2.50;99.90
1205;DHT22;592;48.764;9.174;2023-01-24T02:49:25;2.50;99.90
1205;DHT22;592;48.764;9.174;2023-01-24T02:51:52;2.50;99.90
1205;DHT22;592;48.764;9.174;2023-01-24T02:54:37;2.50;99.90
1205;DHT22;592;48.764;9.174;2023-01-24T02:57:05;2.40;99.90
1205;DHT22;592;48.764;9.174;2023-01-24T02:59:49;2.40;99.90
1205;DHT22;592;48.764;9.174;2023-01-24T03:02:16;2.50;99.90
1205;DHT22;592;48.764;9.174;2023-01-24T03:04:43;2.50;99.90
1205;DHT22;592;48.764;9.174;2023-01-24T03:07:09;2.50;99.90
1205;DHT22;592;48.764;9.174;2023-01-24T03:09:36;2.40;99.90
1205;DHT22;592;48.764;9.174;2023-01-24T03:12:06;2.40;99.90
1205;DHT22;592;48.764;9.174;2023-01-24T03:14:51;2.50;99.90
1205;DHT22;592;48.764;9.174;2023-01-24T03:17:36;2.50;99.90
1205;DHT22;592;48.764;9.174;2023-01-24T03:20:20;2.40;99.90
1205;DHT22;592;48.764;9.174;2023-01-24T03:23:04;2.40;99.90
1205;DHT22;592;48.764;9.174;2023-01-24T03:25:52;2.30;99.90
1205;DHT22;592;48.764;9.174;2023-01-24T03:28:38;2.30;99.90
1205;DHT22;592;48.764;9.174;2023-01-24T03:31:23;2.40;99.90
1205;DHT22;592;48.764;9.174;2023-01-24T03:34:07;2.40;99.90
1205;DHT22;592;48.764;9.174;2023-01-24T03:36:51;2.40;99.90
1205;DHT22;592;48.764;9.174;2023-01-24T03:39:17;2.30;99.90
1205;DHT22;592;48.764;9.174;2023-01-24T03:42:02;2.30;99.90
1205;DHT22;592;48.764;9.174;2023-01-24T03:44:30;2.30;99.90
1205;DHT22;592;48.764;9.174;2023-01-24T03:46:57;2.30;99.90
1205;DHT22;592;48.764;9.174;2023-01-24T03:49:24;2.30;99.90
1205;DHT22;592;48.764;9.174;2023-01-24T03:52:08;2.30;99.90
1205;DHT22;592;48.764;9.174;2023-01-24T03:54:54;2.40;99.90
1205;DHT22;592;48.764;9.174;2023-01-24T03:57:21;2.30;99.90
1205;DHT22;592;48.764;9.174;2023-01-24T03:59:49;2.30;99.90
1205;DHT22;592;48.764;9.174;2023-01-24T04:02:16;2.30;99.90
1205;DHT22;592;48.764;9.174;2023-01-24T04:04:44;2.30;99.90
1205;DHT22;592;48.764;9.174;2023-01-24T04:07:28;2.30;99.90
1205;DHT22;592;48.764;9.174;2023-01-24T04:09:55;2.40;99.90
1205;DHT22;592;48.764;9.174;2023-01-24T04:12:23;2.40;99.90
1205;DHT22;592;48.764;9.174;2023-01-24T04:14:51;2.40;99.90
1205;DHT22;592;48.764;9.174;2023-01-24T04:17:18;2.40;99.90
1205;DHT22;592;48.764;9.174;2023-01-24T04:19:44;2.30;99.90
1205;DHT22;592;48.764;9.174;2023-01-24T04:22:11;2.30;99.90
1205;DHT22;592;48.764;9.174;2023-01-24T04:24:38;2.30;99.90
1205;DHT22;592;48.764;9.174;2023-01-24T04:27:05;2.30;99.90
1205;DHT22;592;48.764;9.174;2023-01-24T04:29:31;2.30;99.90
1205;DHT22;592;48.764;9.174;2023-01-24T04:31:59;2.30;99.90
1205;DHT22;592;48.764;9.174;2023-01-24T04:34:26;2.30;99.90
1205;DHT22;592;48.764;9.174;2023-01-24T04:36:53;2.30;99.90
1205;DHT22;592;48.764;9.174;2023-01-24T04:39:20;2.30;99.90
1205;DHT22;592;48.764;9.174;2023-01-24T04:41:47;2.30;99.90
1205;DHT22;592;48.764;9.174;2023-01-24T04:44:13;2.30;99.90
1205;DHT22;592;48.764;9.174;2023-01-24T04:46:40;2.30;99.90
1205;DHT22;592;48.764;9.174;2023-01-24T04:49:08;2.30;99.90
1205;DHT22;592;48.764;9.174;2023-01-24T04:51:35;2.30;99.90
1205;DHT22;592;48.764;9.174;2023-01-24T04:54:02;2.30;99.90
1205;DHT22;592;48.764;9.174;2023-01-24T04:56:28;2.30;99.90
1205;DHT22;592;48.764;9.174;2023-01-24T04:58:57;2.30;99.90
1205;DHT22;592;48.764;9.174;2023-01-24T05:01:23;2.30;99.90
1205;DHT22;592;48.764;9.174;2023-01-24T05:03:50;2.30;99.90
1205;DHT22;592;48.764;9.174;2023-01-24T05:06:25;2.30;99.90
1205;DHT22;592;48.764;9.174;2023-01-24T05:08:52;2.40;99.90
1205;DHT22;592;48.764;9.174;2023-01-24T05:11:19;2.40;99.90
1205;DHT22;592;48.764;9.174;2023-01-24T05:13:45;2.40;99.90
1205;DHT22;592;48.764;9.174;2023-01-24T05:16:12;2.30;99.90
1205;DHT22;592;48.764;9.174;2023-01-24T05:18:39;2.30;99.90
1205;DHT22;592;48.764;9.174;2023-01-24T05:21:06;2.30;99.90
1205;DHT22;592;48.764;9.174;2023-01-24T05:23:34;2.40;99.90
1205;DHT22;592;48.764;9.174;2023-01-24T05:26:01;2.30;99.90
1205;DHT22;592;48.764;9.174;2023-01-24T05:28:28;2.30;99.90
1205;DHT22;592;48.764;9.174;2023-01-24T05:30:58;2.40;99.90
1205;DHT22;592;48.764;9.174;2023-01-24T05:33:24;2.40;99.90
1205;DHT22;592;48.764;9.174;2023-01-24T05:35:57;2.40;99.90
1205;DHT22;592;48.764;9.174;2023-01-24T05:38:23;2.40;99.90
1205;DHT22;592;48.764;9.174;2023-01-24T05:40:52;2.40;99.90
1205;DHT22;592;48.764;9.174;2023-01-24T05:43:18;2.40;99.90
1205;DHT22;592;48.764;9.174;2023-01-24T05:45:45;2.40;99.90
1205;DHT22;592;48.764;9.174;2023-01-24T05:48:12;2.40;99.90
1205;DHT22;592;48.764;9.174;2023-01-24T05:50:38;2.40;99.90
1205;DHT22;592;48.764;9.174;2023-01-24T05:53:05;2.30;99.90
1205;DHT22;592;48.764;9.174;2023-01-24T05:55:32;2.30;99.90
1205;DHT22;592;48.764;9.174;2023-01-24T05:58:00;2.40;99.90
1205;DHT22;592;48.764;9.174;2023-01-24T06:00:29;2.40;99.90
1205;DHT22;592;48.764;9.174;2023-01-24T06:03:00;2.40;99.90
1205;DHT22;592;48.764;9.174;2023-01-24T06:05:28;2.40;99.90
1205;DHT22;592;48.764;9.174;2023-01-24T06:07:55;2.40;99.90
1205;DHT22;592;48.764;9.174;2023-01-24T06:10:22;2.40;99.90
1205;DHT22;592;48.764;9.174;2023-01-24T06:12:48;2.40;99.90
1205;DHT22;592;48.764;9.174;2023-01-24T06:15:17;2.40;99.90
1205;DHT22;592;48.764;9.174;2023-01-24T06:17:43;2.50;99.90
1205;DHT22;592;48.764;9.174;2023-01-24T06:20:11;2.50;99.90
1205;DHT22;592;48.764;9.174;2023-01-24T06:22:43;2.50;99.90
1205;DHT22;592;48.764;9.174;2023-01-24T06:25:18;2.40;99.90
1205;DHT22;592;48.764;9.174;2023-01-24T06:27:46;2.40;99.90
1205;DHT22;592;48.764;9.174;2023-01-24T06:30:14;2.40;99.90
1205;DHT22;592;48.764;9.174;2023-01-24T06:33:01;2.40;99.90
1205;DHT22;592;48.764;9.174;2023-01-24T06:35:37;2.40;99.90
1205;DHT22;592;48.764;9.174;2023-01-24T06:38:14;2.40;99.90
1205;DHT22;592;48.764;9.174;2023-01-24T06:40:43;2.40;99.90
1205;DHT22;592;48.764;9.174;2023-01-24T06:43:10;2.40;99.90
1205;DHT22;592;48.764;9.174;2023-01-24T06:45:37;2.50;99.90
1205;DHT22;592;48.764;9.174;2023-01-24T06:48:05;2.50;99.90
1205;DHT22;592;48.764;9.174;2023-01-24T06:50:33;2.50;99.90
1205;DHT22;592;48.764;9.174;2023-01-24T06:52:59;2.50;99.90
1205;DHT22;592;48.764;9.174;2023-01-24T06:55:26;2.40;99.90
1205;DHT22;592;48.764;9.174;2023-01-24T06:57:57;2.40;99.90
1205;DHT22;592;48.764;9.174;2023-01-24T07:00:24;2.40;99.90
1205;DHT22;592;48.764;9.174;2023-01-24T07:02:57;2.40;99.90
1205;DHT22;592;48.764;9.174;2023-01-24T07:05:25;2.30;99.90
1205;DHT22;592;48.764;9.174;2023-01-24T07:07:52;2.30;99.90
1205;DHT22;592;48.764;9.174;2023-01-24T07:10:19;2.30;99.90
1205;DHT22;592;48.764;9.174;2023-01-24T07:12:46;2.30;99.90
1205;DHT22;592;48.764;9.174;2023-01-24T07:15:13;2.30;99.90
1205;DHT22;592;48.764;9.174;2023-01-24T07:17:40;2.30;99.90
1205;DHT22;592;48.764;9.174;2023-01-24T07:20:08;2.30;99.90
1205;DHT22;592;48.764;9.174;2023-01-24T07:22:38;2.20;99.90
1205;DHT22;592;48.764;9.174;2023-01-24T07:25:08;2.30;99.90
1205;DHT22;592;48.764;9.174;2023-01-24T07:27:36;2.20;99.90
1205;DHT22;592;48.764;9.174;2023-01-24T07:30:04;2.30;99.90
1205;DHT22;592;48.764;9.174;2023-01-24T07:32:31;2.30;99.90
1205;DHT22;592;48.764;9.174;2023-01-24T07:34:58;2.30;99.90
1205;DHT22;592;48.764;9.174;2023-01-24T07:37:24;2.30;99.90
1205;DHT22;592;48.764;9.174;2023-01-24T07:39:52;2.30;99.90
1205;DHT22;592;48.764;9.174;2023-01-24T07:42:20;2.30;99.90
1205;DHT22;592;48.764;9.174;2023-01-24T07:44:47;2.30;99.90
1205;DHT22;592;48.764;9.174;2023-01-24T07:47:13;2.30;99.90
1205;DHT22;592;48.764;9.174;2023-01-24T07:49:40;2.30;99.90
1205;DHT22;592;48.764;9.174;2023-01-24T07:54:42;2.30;99.90
1205;DHT22;592;48.764;9.174;2023-01-24T07:57:10;2.40;99.90
1205;DHT22;592;48.764;9.174;2023-01-24T07:59:37;2.40;99.90
1205;DHT22;592;48.764;9.174;2023-01-24T08:02:04;2.40;99.90
1205;DHT22;592;48.764;9.174;2023-01-24T08:04:30;2.40;99.90
1205;DHT22;592;48.764;9.174;2023-01-24T08:06:57;2.30;99.90
1205;DHT22;592;48.764;9.174;2023-01-24T08:09:41;2.30;99.90
1205;DHT22;592;48.764;9.174;2023-01-24T08:12:09;2.30;99.90
1205;DHT22;592;48.764;9.174;2023-01-24T08:14:36;2.30;99.90
1205;DHT22;592;48.764;9.174;2023-01-24T08:17:03;2.30;99.90
1205;DHT22;592;48.764;9.174;2023-01-24T08:19:30;2.30;99.90
1205;DHT22;592;48.764;9.174;2023-01-24T08:21:57;2.20;99.90
1205;DHT22;592;48.764;9.174;2023-01-24T08:24:23;2.20;99.90
1205;DHT22;592;48.764;9.174;2023-01-24T08:26:50;2.20;99.90
1205;DHT22;592;48.764;9.174;2023-01-24T08:29:18;2.20;99.90
1205;DHT22;592;48.764;9.174;2023-01-24T08:31:45;2.20;99.90
1205;DHT22;592;48.764;9.174;2023-01-24T08:34:13;2.20;99.90
1205;DHT22;592;48.764;9.174;2023-01-24T08:36:40;2.30;99.90
1205;DHT22;592;48.764;9.174;2023-01-24T08:39:07;2.30;99.90
1205;DHT22;592;48.764;9.174;2023-01-24T08:41:34;2.20;99.90
1205;DHT22;592;48.764;9.174;2023-01-24T08:44:01;2.20;99.90
1205;DHT22;592;48.764;9.174;2023-01-24T08:46:29;2.20;99.90
1205;DHT22;592;48.764;9.174;2023-01-24T08:48:56;2.30;99.90
1205;DHT22;592;48.764;9.174;2023-01-24T08:51:23;2.30;99.90
1205;DHT22;592;48.764;9.174;2023-01-24T08:53:50;2.40;99.90
1205;DHT22;592;48.764;9.174;2023-01-24T08:56:17;2.40;99.90
1205;DHT22;592;48.764;9.174;2023-01-24T08:58:43;2.30;99.90
1205;DHT22;592;48.764;9.174;2023-01-24T09:01:10;2.30;99.90
1205;DHT22;592;48.764;9.174;2023-01-24T09:03:38;2.40;99.90
1205;DHT22;592;48.764;9.174;2023-01-24T09:06:05;2.40;99.90
1205;DHT22;592;48.764;9.174;2023-01-24T09:08:33;2.50;99.90
1205;DHT22;592;48.764;9.174;2023-01-24T09:11:00;2.50;99.90
1205;DHT22;592;48.764;9.174;2023-01-24T09:13:27;2.50;99.90
1205;DHT22;592;48.764;9.174;2023-01-24T09:15:57;2.60;99.90
1205;DHT22;592;48.764;9.174;2023-01-24T09:18:24;2.50;99.90
1205;DHT22;592;48.764;9.174;2023-01-24T09:20:52;2.50;99.90
1205;DHT22;592;48.764;9.174;2023-01-24T09:23:19;2.50;99.90
1205;DHT22;592;48.764;9.174;2023-01-24T09:25:50;2.50;99.90
1205;DHT22;592;48.764;9.174;2023-01-24T09:28:17;2.50;99.90
1205;DHT22;592;48.764;9.174;2023-01-24T09:30:46;2.50;99.90
1205;DHT22;592;48.764;9.174;2023-01-24T09:33:13;2.50;99.90
1205;DHT22;592;48.764;9.174;2023-01-24T09:35:40;2.50;99.90
1205;DHT22;592;48.764;9.174;2023-01-24T09:38:08;2.50;99.90
1205;DHT22;592;48.764;9.174;2023-01-24T09:40:42;2.50;99.90
1205;DHT22;592;48.764;9.174;2023-01-24T09:43:15;2.50;99.90
1205;DHT22;592;48.764;9.174;2023-01-24T09:45:49;2.60;99.90
1205;DHT22;592;48.764;9.174;2023-01-24T09:48:19;2.60;99.90
1205;DHT22;592;48.764;9.174;2023-01-24T09:50:49;2.60;99.90
1205;DHT22;592;48.764;9.174;2023-01-24T09:53:19;2.60;99.90
1205;DHT22;592;48.764;9.174;2023-01-24T09:55:47;2.60;99.90
1205;DHT22;592;48.764;9.174;2023-01-24T09:58:23;2.50;99.90
1205;DHT22;592;48.764;9.174;2023-01-24T10:00:54;2.60;99.90
1205;DHT22;592;48.764;9.174;2023-01-24T10:03:23;2.60;99.90
1205;DHT22;592;48.764;9.174;2023-01-24T10:05:52;2.60;99.90
1205;DHT22;592;48.764;9.174;2023-01-24T10:08:27;2.60;99.90
1205;DHT22;592;48.764;9.174;2023-01-24T10:11:06;2.60;99.90
1205;DHT22;592;48.764;9.174;2023-01-24T10:13:52;2.60;99.90
1205;DHT22;592;48.764;9.174;2023-01-24T10:16:43;2.50;99.90
1205;DHT22;592;48.764;9.174;2023-01-24T10:19:19;2.60;99.90
1205;DHT22;592;48.764;9.174;2023-01-24T10:22:02;2.60;99.90
1205;DHT22;592;48.764;9.174;2023-01-24T10:24:35;2.60;99.90
1205;DHT22;592;48.764;9.174;2023-01-24T10:27:15;2.60;99.90
1205;DHT22;592;48.764;9.174;2023-01-24T10:29:43;2.60;99.90
1205;DHT22;592;48.764;9.174;2023-01-24T10:32:14;2.60;99.90
1205;DHT22;592;48.764;9.174;2023-01-24T10:34:44;2.60;99.90
1205;DHT22;592;48.764;9.174;2023-01-24T10:37:17;2.60;99.90
1205;DHT22;592;48.764;9.174;2023-01-24T10:39:47;2.60;99.90
1205;DHT22;592;48.764;9.174;2023-01-24T10:42:20;2.60;99.90
1205;DHT22;592;48.764;9.174;2023-01-24T10:44:48;2.70;99.90
1205;DHT22;592;48.764;9.174;2023-01-24T10:47:41;2.70;99.90
1205;DHT22;592;48.764;9.174;2023-01-24T10:50:12;2.80;99.90
1205;DHT22;592;48.764;9.174;2023-01-24T10:52:39;2.80;99.90
1205;DHT22;592;48.764;9.174;2023-01-24T10:55:25;2.80;99.90
1205;DHT22;592;48.764;9.174;2023-01-24T10:57:53;2.90;99.90
1205;DHT22;592;48.764;9.174;2023-01-24T11:00:29;2.80;99.90
1205;DHT22;592;48.764;9.174;2023-01-24T11:02:59;2.80;99.90
1205;DHT22;592;48.764;9.174;2023-01-24T11:05:36;2.90;99.90
1205;DHT22;592;48.764;9.174;2023-01-24T11:08:04;2.80;99.90
1205;DHT22;592;48.764;9.174;2023-01-24T11:10:36;2.90;99.90
1205;DHT22;592;48.764;9.174;2023-01-24T11:13:26;3.00;99.90
1205;DHT22;592;48.764;9.174;2023-01-24T11:15:59;3.00;99.90
1205;DHT22;592;48.764;9.174;2023-01-24T11:18:28;3.00;99.90
1205;DHT22;592;48.764;9.174;2023-01-24T11:21:07;3.10;99.90
1205;DHT22;592;48.764;9.174;2023-01-24T11:23:34;3.10;99.90
1205;DHT22;592;48.764;9.174;2023-01-24T11:26:04;3.10;99.90
1205;DHT22;592;48.764;9.174;2023-01-24T11:28:32;3.10;99.90
1205;DHT22;592;48.764;9.174;2023-01-24T11:31:01;3.20;99.90
1205;DHT22;592;48.764;9.174;2023-01-24T11:33:55;3.20;99.90
1205;DHT22;592;48.764;9.174;2023-01-24T11:36:36;3.20;99.90
1205;DHT22;592;48.764;9.174;2023-01-24T11:39:13;3.20;99.90
1205;DHT22;592;48.764;9.174;2023-01-24T11:41:50;3.20;99.90
1205;DHT22;592;48.764;9.174;2023-01-24T11:44:35;3.20;99.90
1205;DHT22;592;48.764;9.174;2023-01-24T11:47:10;3.30;99.90
1205;DHT22;592;48.764;9.174;2023-01-24T11:49:57;3.20;99.90
1205;DHT22;592;48.764;9.174;2023-01-24T11:52:45;3.20;99.90
1205;DHT22;592;48.764;9.174;2023-01-24T11:55:28;3.20;99.90
1205;DHT22;592;48.764;9.174;2023-01-24T11:58:10;3.20;99.90
1205;DHT22;592;48.764;9.174;2023-01-24T12:00:40;3.20;99.90
1205;DHT22;592;48.764;9.174;2023-01-24T12:03:24;3.10;99.90
1205;DHT22;592;48.764;9.174;2023-01-24T12:06:10;3.20;99.90
1205;DHT22;592;48.764;9.174;2023-01-24T12:08:54;3.10;99.90
1205;DHT22;592;48.764;9.174;2023-01-24T12:11:28;3.20;99.90
1205;DHT22;592;48.764;9.174;2023-01-24T12:14:10;3.20;99.90
1205;DHT22;592;48.764;9.174;2023-01-24T12:16:52;3.20;99.90
1205;DHT22;592;48.764;9.174;2023-01-24T12:19:38;3.20;99.90
1205;DHT22;592;48.764;9.174;2023-01-24T12:22:12;3.20;99.90
1205;DHT22;592;48.764;9.174;2023-01-24T12:24:42;3.10;99.90
1205;DHT22;592;48.764;9.174;2023-01-24T12:27:14;3.10;99.90
1205;DHT22;592;48.764;9.174;2023-01-24T12:29:50;3.10;99.90
1205;DHT22;592;48.764;9.174;2023-01-24T12:32:23;3.10;99.90
1205;DHT22;592;48.764;9.174;2023-01-24T12:34:56;3.10;99.90
1205;DHT22;592;48.764;9.174;2023-01-24T12:37:28;3.10;99.90
1205;DHT22;592;48.764;9.174;2023-01-24T12:40:00;3.10;99.90
1205;DHT22;592;48.764;9.174;2023-01-24T12:42:44;3.10;99.90
1205;DHT22;592;48.764;9.174;2023-01-24T12:45:20;3.10;99.90
1205;DHT22;592;48.764;9.174;2023-01-24T12:47:56;3.10;99.90
1205;DHT22;592;48.764;9.174;2023-01-24T12:50:31;3.20;99.90
1205;DHT22;592;48.764;9.174;2023-01-24T12:53:08;3.20;99.90
1205;DHT22;592;48.764;9.174;2023-01-24T12:55:40;3.20;99.90
1205;DHT22;592;48.764;9.174;2023-01-24T12:58:16;3.20;99.90
1205;DHT22;592;48.764;9.174;2023-01-24T13:00:57;3.10;99.90
1205;DHT22;592;48.764;9.174;2023-01-24T13:03:41;3.10;99.90
1205;DHT22;592;48.764;9.174;2023-01-24T13:06:15;3.10;99.90
1205;DHT22;592;48.764;9.174;2023-01-24T13:08:52;3.10;99.90
1205;DHT22;592;48.764;9.174;2023-01-24T13:11:24;3.20;99.90
1205;DHT22;592;48.764;9.174;2023-01-24T13:14:02;3.20;99.90
1205;DHT22;592;48.764;9.174;2023-01-24T13:25:29;3.10;99.90
1205;DHT22;592;48.764;9.174;2023-01-24T13:28:03;3.10;99.90
1205;DHT22;592;48.764;9.174;2023-01-24T13:30:43;3.00;99.90
1205;DHT22;592;48.764;9.174;2023-01-24T13:33:16;3.10;99.90
1205;DHT22;592;48.764;9.174;2023-01-24T13:35:48;2.90;99.90
1205;DHT22;592;48.764;9.174;2023-01-24T13:38:25;2.90;99.90
1205;DHT22;592;48.764;9.174;2023-01-24T13:41:01;2.90;99.90
1205;DHT22;592;48.764;9.174;2023-01-24T13:43:55;2.90;99.90
1205;DHT22;592;48.764;9.174;2023-01-24T13:49:34;3.00;99.90
1205;DHT22;592;48.764;9.174;2023-01-24T13:52:03;2.90;99.90
1205;DHT22;592;48.764;9.174;2023-01-24T13:54:37;2.90;99.90
1205;DHT22;592;48.764;9.174;2023-01-24T13:57:26;2.90;99.90
1205;DHT22;592;48.764;9.174;2023-01-24T14:00:24;3.00;99.90
1205;DHT22;592;48.764;9.174;2023-01-24T14:03:05;3.00;99.90
1205;DHT22;592;48.764;9.174;2023-01-24T14:05:44;3.00;99.90
1205;DHT22;592;48.764;9.174;2023-01-24T14:08:38;3.00;99.90
1205;DHT22;592;48.764;9.174;2023-01-24T14:11:36;3.00;99.90
1205;DHT22;592;48.764;9.174;2023-01-24T14:14:33;3.00;99.90
1205;DHT22;592;48.764;9.174;2023-01-24T14:19:58;2.90;99.90
1205;DHT22;592;48.764;9.174;2023-01-24T14:22:33;2.90;99.90
1205;DHT22;592;48.764;9.174;2023-01-24T14:25:13;2.80;99.90
1205;DHT22;592;48.764;9.174;2023-01-24T14:27:48;2.90;99.90
1205;DHT22;592;48.764;9.174;2023-01-24T14:30:30;2.90;99.90
1205;DHT22;592;48.764;9.174;2023-01-24T14:33:01;2.90;99.90
1205;DHT22;592;48.764;9.174;2023-01-24T14:35:33;2.90;99.90
1205;DHT22;592;48.764;9.174;2023-01-24T14:38:14;2.80;99.90
1205;DHT22;592;48.764;9.174;2023-01-24T14:40:41;2.80;99.90
1205;DHT22;592;48.764;9.174;2023-01-24T14:43:10;2.80;99.90
1205;DHT22;592;48.764;9.174;2023-01-24T14:45:38;2.90;99.90
1205;DHT22;592;48.764;9.174;2023-01-24T14:48:10;2.90;99.90
1205;DHT22;592;48.764;9.174;2023-01-24T14:50:40;2.90;99.90
1205;DHT22;592;48.764;9.174;2023-01-24T14:53:23;2.90;99.90
1205;DHT22;592;48.764;9.174;2023-01-24T14:55:51;2.90;99.90
1205;DHT22;592;48.764;9.174;2023-01-24T14:58:24;2.90;99.90
1205;DHT22;592;48.764;9.174;2023-01-24T15:00:53;2.80;99.90
1205;DHT22;592;48.764;9.174;2023-01-24T15:03:22;2.90;99.90
1205;DHT22;592;48.764;9.174;2023-01-24T15:06:00;2.90;99.90
1205;DHT22;592;48.764;9.174;2023-01-24T15:08:27;2.90;99.90
1205;DHT22;592;48.764;9.174;2023-01-24T15:10:58;2.80;99.90
1205;DHT22;592;48.764;9.174;2023-01-24T15:13:29;2.90;99.90
1205;DHT22;592;48.764;9.174;2023-01-24T15:15:57;2.90;99.90
1205;DHT22;592;48.764;9.174;2023-01-24T15:18:39;2.90;99.90
1205;DHT22;592;48.764;9.174;2023-01-24T15:21:19;2.90;99.90
1205;DHT22;592;48.764;9.174;2023-01-24T15:23:51;2.90;99.90
1205;DHT22;592;48.764;9.174;2023-01-24T15:26:34;2.90;99.90
1205;DHT22;592;48.764;9.174;2023-01-24T15:32:35;2.90;99.90
1205;DHT22;592;48.764;9.174;2023-01-24T15:35:35;2.90;99.90
1205;DHT22;592;48.764;9.174;2023-01-24T15:38:17;2.90;99.90
1205;DHT22;592;48.764;9.174;2023-01-24T15:40:48;2.90;99.90
1205;DHT22;592;48.764;9.174;2023-01-24T15:43:18;2.80;99.90
1205;DHT22;592;48.764;9.174;2023-01-24T15:46:04;2.90;99.90
1205;DHT22;592;48.764;9.174;2023-01-24T15:48:58;2.90;99.90
1205;DHT22;592;48.764;9.174;2023-01-24T15:51:29;2.90;99.90
1205;DHT22;592;48.764;9.174;2023-01-24T15:53:57;2.90;99.90
1205;DHT22;592;48.764;9.174;2023-01-24T15:56:24;2.90;99.90
1205;DHT22;592;48.764;9.174;2023-01-24T15:58:51;2.80;99.90
1205;DHT22;592;48.764;9.174;2023-01-24T16:01:18;2.80;99.90
1205;DHT22;592;48.764;9.174;2023-01-24T16:03:44;2.80;99.90
1205;DHT22;592;48.764;9.174;2023-01-24T16:06:12;2.80;99.90
1205;DHT22;592;48.764;9.174;2023-01-24T16:08:39;2.80;99.90
1205;DHT22;592;48.764;9.174;2023-01-24T16:11:06;2.90;99.90
1205;DHT22;592;48.764;9.174;2023-01-24T16:13:34;2.90;99.90
1205;DHT22;592;48.764;9.174;2023-01-24T16:16:05;2.80;99.90
1205;DHT22;592;48.764;9.174;2023-01-24T16:18:32;2.80;99.90
1205;DHT22;592;48.764;9.174;2023-01-24T16:20:59;2.80;99.90
1205;DHT22;592;48.764;9.174;2023-01-24T16:23:27;2.70;99.90
1205;DHT22;592;48.764;9.174;2023-01-24T16:25:55;2.80;99.90
1205;DHT22;592;48.764;9.174;2023-01-24T16:28:24;2.80;99.90
1205;DHT22;592;48.764;9.174;2023-01-24T16:30:52;2.80;99.90
1205;DHT22;592;48.764;9.174;2023-01-24T16:33:20;2.80;99.90
1205;DHT22;592;48.764;9.174;2023-01-24T16:35:47;2.80;99.90
1205;DHT22;592;48.764;9.174;2023-01-24T16:38:15;2.90;99.90
1205;DHT22;592;48.764;9.174;2023-01-24T16:40:43;2.80;99.90
1205;DHT22;592;48.764;9.174;2023-01-24T16:43:16;2.70;99.90
1205;DHT22;592;48.764;9.174;2023-01-24T16:45:45;2.70;99.90
1205;DHT22;592;48.764;9.174;2023-01-24T16:48:13;2.60;99.90
1205;DHT22;592;48.764;9.174;2023-01-24T16:50:40;2.60;99.90
1205;DHT22;592;48.764;9.174;2023-01-24T16:53:07;2.70;99.90
1205;DHT22;592;48.764;9.174;2023-01-24T16:55:34;2.70;99.90
1205;DHT22;592;48.764;9.174;2023-01-24T16:58:04;2.70;99.90
1205;DHT22;592;48.764;9.174;2023-01-24T17:00:31;2.70;99.90
1205;DHT22;592;48.764;9.174;2023-01-24T17:02:58;2.70;99.90
1205;DHT22;592;48.764;9.174;2023-01-24T17:05:25;2.70;99.90
1205;DHT22;592;48.764;9.174;2023-01-24T17:07:54;2.60;99.90
1205;DHT22;592;48.764;9.174;2023-01-24T17:10:21;2.60;99.90
1205;DHT22;592;48.764;9.174;2023-01-24T17:12:48;2.60;99.90
1205;DHT22;592;48.764;9.174;2023-01-24T17:15:17;2.60;99.90
1205;DHT22;592;48.764;9.174;2023-01-24T17:17:48;2.60;99.90
1205;DHT22;592;48.764;9.174;2023-01-24T17:20:15;2.60;99.90
1205;DHT22;592;48.764;9.174;2023-01-24T17:22:42;2.60;99.90
1205;DHT22;592;48.764;9.174;2023-01-24T17:25:09;2.60;99.90